createdAt,value
2024-05-09T00:00:36.480Z,4.50
2024-05-09T00:03:07.420Z,4.40
2024-05-09T00:05:34.882Z,4.70
2024-05-09T00:08:02.104Z,4.40
2024-05-09T00:10:35.963Z,4.20
2024-05-09T00:13:06.424Z,3.90
2024-05-09T00:15:34.150Z,3.90
2024-05-09T00:18:01.842Z,4.30
2024-05-09T00:20:37.350Z,4.60
2024-05-09T00:23:09.720Z,4.40
2024-05-09T00:25:37.524Z,4.60
2024-05-09T00:28:05.503Z,4.60
2024-05-09T00:30:35.715Z,4.40
2024-05-09T00:33:05.707Z,4.40
2024-05-09T00:35:33.880Z,4.10
2024-05-09T00:38:01.116Z,3.90
2024-05-09T00:40:38.748Z,4.50
2024-05-09T00:43:09.165Z,4.70
2024-05-09T00:45:36.318Z,4.60
2024-05-09T00:48:07.993Z,3.90
2024-05-09T00:50:38.669Z,4.80
2024-05-09T00:53:06.300Z,4.80
2024-05-09T00:55:35.049Z,4.20
2024-05-09T00:58:02.302Z,4.20
2024-05-09T01:00:36.011Z,4.30
2024-05-09T01:03:12.009Z,3.80
2024-05-09T01:05:42.099Z,4.50
2024-05-09T01:08:10.056Z,4.80
2024-05-09T01:10:37.520Z,4.50
2024-05-09T01:13:04.922Z,3.90
2024-05-09T01:15:32.416Z,4.40
2024-05-09T01:18:07.165Z,4.50
2024-05-09T01:20:41.255Z,4.80
2024-05-09T01:23:11.648Z,5.30
2024-05-09T01:25:39.052Z,4.00
2024-05-09T01:28:06.490Z,3.70
2024-05-09T01:30:36.199Z,4.40
2024-05-09T01:33:07.257Z,5.30
2024-05-09T01:35:36.555Z,4.90
2024-05-09T01:38:04.438Z,4.30
2024-05-09T01:40:38.432Z,4.50
2024-05-09T01:45:35.787Z,5.30
2024-05-09T01:48:03.201Z,4.70
2024-05-09T01:50:38.143Z,4.30
2024-05-09T01:53:12.598Z,4.30
2024-05-09T01:55:40.180Z,4.60
2024-05-09T01:58:08.125Z,3.80
2024-05-09T02:00:39.880Z,3.90
2024-05-09T02:03:10.519Z,4.00
2024-05-09T02:05:39.174Z,3.90
2024-05-09T02:08:06.701Z,4.50
2024-05-09T02:10:33.944Z,4.00
2024-05-09T02:13:00.919Z,3.60
2024-05-09T02:15:28.355Z,4.20
2024-05-09T02:17:55.906Z,3.80
2024-05-09T02:20:30.466Z,4.30
2024-05-09T02:23:04.619Z,3.80
2024-05-09T02:25:32.278Z,4.80
2024-05-09T02:27:59.402Z,4.30
2024-05-09T02:30:36.525Z,3.20
2024-05-09T02:33:12.919Z,4.10
2024-05-09T02:35:41.851Z,4.60
2024-05-09T02:38:08.966Z,4.10
2024-05-09T02:40:38.475Z,3.40
2024-05-09T02:43:07.536Z,4.00
2024-05-09T02:45:34.748Z,3.60
2024-05-09T02:48:02.696Z,3.90
2024-05-09T02:50:37.144Z,3.60
2024-05-09T02:53:07.508Z,4.60
2024-05-09T02:55:34.915Z,4.40
2024-05-09T02:58:01.787Z,3.90
2024-05-09T03:00:38.167Z,3.60
2024-05-09T03:03:10.103Z,4.50
2024-05-09T03:05:39.515Z,4.20
2024-05-09T03:08:07.102Z,4.00
2024-05-09T03:10:36.822Z,3.80
2024-05-09T03:13:09.414Z,4.30
2024-05-09T03:18:44.154Z,4.30
2024-05-09T03:21:11.830Z,4.50
2024-05-09T03:23:43.465Z,4.40
2024-05-09T03:26:15.377Z,4.80
2024-05-09T03:28:43.603Z,4.50
2024-05-09T03:31:11.088Z,4.30
2024-05-09T03:33:38.736Z,4.20
2024-05-09T03:36:09.051Z,4.20
2024-05-09T03:38:38.521Z,3.70
2024-05-09T03:41:06.106Z,4.20
2024-05-09T03:43:33.593Z,4.20
2024-05-09T03:46:00.638Z,3.60
2024-05-09T03:48:28.077Z,3.60
2024-05-09T03:50:55.163Z,4.40
2024-05-09T03:53:22.410Z,3.90
2024-05-09T03:55:49.781Z,4.40
2024-05-09T03:58:18.433Z,4.70
2024-05-09T04:00:45.546Z,4.00
2024-05-09T04:03:13.446Z,4.60
2024-05-09T04:05:42.329Z,3.80
2024-05-09T04:08:10.848Z,3.40
2024-05-09T04:10:38.079Z,3.70
2024-05-09T04:13:05.208Z,4.00
2024-05-09T04:15:32.623Z,3.80
2024-05-09T04:18:00.025Z,4.10
2024-05-09T04:20:36.302Z,4.00
2024-05-09T04:23:08.058Z,3.80
2024-05-09T04:25:37.512Z,3.90
2024-05-09T04:28:05.177Z,4.00
2024-05-09T04:30:38.173Z,3.90
2024-05-09T04:33:09.518Z,4.00
2024-05-09T04:35:39.205Z,3.90
2024-05-09T04:38:06.716Z,4.00
2024-05-09T04:40:36.615Z,4.50
2024-05-09T04:43:05.582Z,5.00
2024-05-09T04:45:32.795Z,4.20
2024-05-09T04:47:59.980Z,4.70
2024-05-09T04:50:35.163Z,4.00
2024-05-09T04:53:07.607Z,4.40
2024-05-09T04:55:36.002Z,4.40
2024-05-09T04:58:03.305Z,4.40
2024-05-09T05:00:36.058Z,4.40
2024-05-09T05:03:13.101Z,4.40
2024-05-09T05:05:43.294Z,4.10
2024-05-09T05:08:11.861Z,4.40
2024-05-09T05:10:39.192Z,4.60
2024-05-09T05:13:15.246Z,5.50
2024-05-09T05:15:43.426Z,5.50
2024-05-09T05:18:10.925Z,4.20
2024-05-09T05:20:38.242Z,5.10
2024-05-09T05:23:08.290Z,4.30
2024-05-09T05:25:35.189Z,5.30
2024-05-09T05:28:02.132Z,4.60
2024-05-09T05:30:34.398Z,5.20
2024-05-09T05:33:02.342Z,5.60
2024-05-09T05:35:29.809Z,4.30
2024-05-09T05:37:56.733Z,5.10
2024-05-09T05:40:32.264Z,4.80
2024-05-09T05:43:07.769Z,4.90
2024-05-09T05:45:35.129Z,4.60
2024-05-09T05:48:03.837Z,3.50
2024-05-09T05:50:35.939Z,4.00
2024-05-09T05:53:06.182Z,3.90
2024-05-09T05:55:33.243Z,3.80
2024-05-09T05:58:03.366Z,4.50
2024-05-09T06:00:38.135Z,4.40
2024-05-09T06:03:08.179Z,4.20
2024-05-09T06:05:36.255Z,3.90
2024-05-09T06:08:04.153Z,3.60
2024-05-09T06:10:37.968Z,4.10
2024-05-09T06:13:11.864Z,4.20
2024-05-09T06:15:39.729Z,3.80
2024-05-09T06:18:08.002Z,4.10
2024-05-09T06:20:37.854Z,4.60
2024-05-09T06:23:06.182Z,4.20
2024-05-09T06:25:34.362Z,4.10
2024-05-09T06:28:01.374Z,4.90
2024-05-09T06:30:35.264Z,3.40
2024-05-09T06:33:08.027Z,3.70
2024-05-09T06:35:35.636Z,3.60
2024-05-09T06:38:03.167Z,3.50
2024-05-09T06:40:37.181Z,3.70
2024-05-09T06:43:17.604Z,3.40
2024-05-09T06:45:49.442Z,3.20
2024-05-09T06:48:20.446Z,3.10
2024-05-09T06:50:48.225Z,3.70
2024-05-09T06:53:15.927Z,4.70
2024-05-09T06:55:42.969Z,2.80
2024-05-09T06:58:10.009Z,3.10
2024-05-09T07:00:40.063Z,3.00
2024-05-09T07:03:15.373Z,3.00
2024-05-09T07:05:45.223Z,3.10
2024-05-09T07:08:13.453Z,2.90
2024-05-09T07:10:42.139Z,2.80
2024-05-09T07:13:09.986Z,2.90
2024-05-09T07:15:37.383Z,2.90
2024-05-09T07:18:22.782Z,2.70
2024-05-09T07:20:50.681Z,3.00
2024-05-09T07:23:18.214Z,2.60
2024-05-09T07:25:45.726Z,3.10
2024-05-09T07:28:16.820Z,3.00
2024-05-09T07:30:44.020Z,2.90
2024-05-09T07:33:22.502Z,2.80
2024-05-09T07:35:51.113Z,2.50
2024-05-09T07:38:18.254Z,2.80
2024-05-09T07:40:45.810Z,3.00
2024-05-09T07:43:13.527Z,2.70
2024-05-09T07:45:50.413Z,3.60
2024-05-09T07:52:38.305Z,2.00
2024-05-09T07:53:46.332Z,2.80
2024-05-09T07:56:17.515Z,2.50
2024-05-09T07:58:45.564Z,2.50
2024-05-09T08:01:12.907Z,2.10
2024-05-09T08:03:40.971Z,2.30
2024-05-09T08:06:08.111Z,2.60
2024-05-09T08:08:36.058Z,2.70
2024-05-09T08:11:03.146Z,2.10
2024-05-09T08:13:30.668Z,1.90
2024-05-09T08:15:57.651Z,2.30
2024-05-09T08:18:24.781Z,2.00
2024-05-09T08:20:52.122Z,2.30
2024-05-09T08:23:19.191Z,2.70
2024-05-09T08:25:47.413Z,2.20
2024-05-09T08:28:14.709Z,2.60
2024-05-09T08:30:42.428Z,2.30
2024-05-09T08:33:09.558Z,2.50
2024-05-09T08:35:37.483Z,2.30
2024-05-09T08:38:06.089Z,2.30
2024-05-09T08:40:36.106Z,2.00
2024-05-09T08:43:08.627Z,2.00
2024-05-09T08:45:41.490Z,2.10
2024-05-09T08:48:08.669Z,1.90
2024-05-09T08:50:39.266Z,2.10
2024-05-09T08:53:08.043Z,2.30
2024-05-09T08:55:38.131Z,2.00
2024-05-09T08:58:07.418Z,1.60
2024-05-09T09:00:37.322Z,1.70
2024-05-09T09:03:06.350Z,2.00
2024-05-09T09:05:33.847Z,1.90
2024-05-09T09:08:03.940Z,1.80
2024-05-09T09:10:32.425Z,1.90
2024-05-09T09:13:04.031Z,2.10
2024-05-09T09:15:31.079Z,1.60
2024-05-09T09:17:58.659Z,2.20
2024-05-09T09:20:33.526Z,1.50
2024-05-09T09:23:03.426Z,1.30
2024-05-09T09:25:30.688Z,1.20
2024-05-09T09:27:57.809Z,1.50
2024-05-09T09:30:36.027Z,1.80
2024-05-09T09:33:06.266Z,1.70
2024-05-09T09:35:35.262Z,1.50
2024-05-09T09:38:02.906Z,1.40
2024-05-09T09:40:35.898Z,1.80
2024-05-09T09:45:36.004Z,1.40
2024-05-09T09:48:05.057Z,1.50
2024-05-09T09:50:34.814Z,2.00
2024-05-09T09:53:03.467Z,1.10
2024-05-09T09:55:32.047Z,1.40
2024-05-09T09:57:59.064Z,1.20
2024-05-09T10:00:32.050Z,1.40
2024-05-09T10:03:01.707Z,1.40
2024-05-09T10:05:29.785Z,1.00
2024-05-09T10:07:56.949Z,1.50
2024-05-09T10:10:31.449Z,1.50
2024-05-09T10:13:03.639Z,1.40
2024-05-09T10:15:46.217Z,1.30
2024-05-09T10:18:14.524Z,1.10
2024-05-09T10:20:45.634Z,1.20
2024-05-09T10:23:23.124Z,1.20
2024-05-09T10:26:04.203Z,1.60
2024-05-09T10:28:32.639Z,1.50
2024-05-09T10:31:17.755Z,1.50
2024-05-09T10:33:47.456Z,1.70
2024-05-09T10:36:18.593Z,1.50
2024-05-09T10:38:45.645Z,1.50
2024-05-09T10:41:12.582Z,1.50
2024-05-09T10:43:43.018Z,1.80
2024-05-09T10:46:10.567Z,1.00
2024-05-09T10:48:38.431Z,1.80
2024-05-09T10:51:05.585Z,1.20
2024-05-09T10:53:32.392Z,1.30
2024-05-09T10:55:59.997Z,1.30
2024-05-09T10:58:27.543Z,1.40
2024-05-09T11:00:57.713Z,1.50
2024-05-09T11:03:24.857Z,1.60
2024-05-09T11:05:52.344Z,1.30
2024-05-09T11:08:21.565Z,1.40
2024-05-09T11:10:50.386Z,1.40
2024-05-09T11:13:30.789Z,1.30
2024-05-09T11:16:01.451Z,1.50
2024-05-09T11:18:32.323Z,1.10
2024-05-09T11:21:03.340Z,1.60
2024-05-09T11:23:31.106Z,1.20
2024-05-09T11:25:58.259Z,1.60
2024-05-09T11:28:27.645Z,1.10
2024-05-09T11:31:04.790Z,1.00
2024-05-09T11:33:31.768Z,1.10
2024-05-09T11:35:58.825Z,1.10
2024-05-09T11:38:25.962Z,1.40
2024-05-09T11:40:52.945Z,1.20
2024-05-09T11:43:20.494Z,1.30
2024-05-09T11:45:47.481Z,1.30
2024-05-09T11:48:14.689Z,2.40
2024-05-09T11:50:42.025Z,1.10
2024-05-09T11:53:09.093Z,1.10
2024-05-09T11:55:36.070Z,1.30
2024-05-09T11:58:04.044Z,1.10
2024-05-09T12:00:36.674Z,1.00
2024-05-09T12:03:06.087Z,1.20
2024-05-09T12:05:34.151Z,1.10
2024-05-09T12:08:01.828Z,1.10
2024-05-09T12:10:33.787Z,1.00
2024-05-09T12:13:04.365Z,1.00
2024-05-09T12:15:35.236Z,1.00
2024-05-09T12:18:03.926Z,1.10
2024-05-09T12:20:36.967Z,1.30
2024-05-09T12:23:07.220Z,1.30
2024-05-09T12:25:35.692Z,1.20
2024-05-09T12:28:03.436Z,1.20
2024-05-09T12:30:36.707Z,1.10
2024-05-09T12:33:11.295Z,1.10
2024-05-09T12:35:39.550Z,1.20
2024-05-09T12:38:06.467Z,1.20
2024-05-09T12:40:37.267Z,1.10
2024-05-09T12:43:06.766Z,1.80
2024-05-09T12:45:34.285Z,1.30
2024-05-09T12:48:01.515Z,1.30
2024-05-09T12:50:33.275Z,1.40
2024-05-09T12:53:02.456Z,1.70
2024-05-09T12:55:37.153Z,1.20
2024-05-09T12:58:13.075Z,1.10
2024-05-09T13:00:40.388Z,1.20
2024-05-09T13:03:07.509Z,1.00
2024-05-09T13:05:35.163Z,4.20
2024-05-09T13:08:03.046Z,3.20
2024-05-09T13:10:32.772Z,1.20
2024-05-09T13:13:01.621Z,1.00
2024-05-09T13:15:30.029Z,2.00
2024-05-09T13:18:00.254Z,1.20
2024-05-09T13:20:33.747Z,1.70
2024-05-09T13:23:03.456Z,1.30
2024-05-09T13:25:30.787Z,1.40
2024-05-09T13:27:57.966Z,1.10
2024-05-09T13:30:34.348Z,1.30
2024-05-09T13:33:07.203Z,1.20
2024-05-09T13:35:35.579Z,1.30
2024-05-09T13:38:04.267Z,1.20
2024-05-09T13:40:35.230Z,1.40
2024-05-09T13:43:04.683Z,1.60
2024-05-09T13:45:33.206Z,1.40
2024-05-09T13:48:01.505Z,1.40
2024-05-09T13:50:35.546Z,1.40
2024-05-09T13:53:06.337Z,1.30
2024-05-09T13:55:36.598Z,1.60
2024-05-09T13:58:03.869Z,1.10
2024-05-09T14:00:42.618Z,1.30
2024-05-09T14:03:14.811Z,1.40
2024-05-09T14:05:42.678Z,1.30
2024-05-09T14:08:09.859Z,1.30
2024-05-09T14:10:42.929Z,1.10
2024-05-09T14:13:10.178Z,1.30
2024-05-09T14:15:37.272Z,0.90
2024-05-09T14:18:04.819Z,1.10
2024-05-09T14:20:32.619Z,0.90
2024-05-09T14:23:00.690Z,1.20
2024-05-09T14:25:29.260Z,0.90
2024-05-09T14:27:59.168Z,1.20
2024-05-09T14:30:34.372Z,1.00
2024-05-09T14:33:06.071Z,0.90
2024-05-09T14:35:34.017Z,1.00
2024-05-09T14:38:01.177Z,1.70
2024-05-09T14:40:39.914Z,0.90
2024-05-09T14:43:11.110Z,0.90
2024-05-09T14:45:38.395Z,0.80
2024-05-09T14:48:06.372Z,1.00
2024-05-09T14:50:37.926Z,1.10
2024-05-09T14:53:07.835Z,1.00
2024-05-09T14:55:36.705Z,1.40
2024-05-09T14:58:05.755Z,1.20
2024-05-09T15:00:37.850Z,1.10
2024-05-09T15:03:06.176Z,0.80
2024-05-09T15:05:33.594Z,1.10
2024-05-09T15:08:00.545Z,0.90
2024-05-09T15:10:34.327Z,1.20
2024-05-09T15:13:04.050Z,1.00
2024-05-09T15:15:31.615Z,1.30
2024-05-09T15:17:58.925Z,0.90
2024-05-09T15:20:33.132Z,0.70
2024-05-09T15:23:04.192Z,1.20
2024-05-09T15:25:32.806Z,0.70
2024-05-09T15:27:59.931Z,0.90
2024-05-09T15:30:31.404Z,0.90
2024-05-09T15:33:02.770Z,0.90
2024-05-09T15:36:28.036Z,0.90
2024-05-09T15:38:55.917Z,1.20
2024-05-09T15:41:24.181Z,1.00
2024-05-09T15:43:51.735Z,1.10
2024-05-09T15:46:19.295Z,0.70
2024-05-09T15:48:47.670Z,0.90
2024-05-09T15:51:15.339Z,1.30
2024-05-09T15:53:42.910Z,0.90
2024-05-09T15:56:11.064Z,0.80
2024-05-09T15:58:38.522Z,0.80
2024-05-09T16:01:06.460Z,1.60
2024-05-09T16:03:34.377Z,1.10
2024-05-09T16:06:02.722Z,0.90
2024-05-09T16:08:30.495Z,0.70
2024-05-09T16:10:58.283Z,0.80
2024-05-09T16:13:25.954Z,0.80
2024-05-09T16:15:53.766Z,1.50
2024-05-09T16:18:21.490Z,1.10
2024-05-09T16:20:50.282Z,0.90
2024-05-09T16:23:18.202Z,0.90
2024-05-09T16:25:47.792Z,1.30
2024-05-09T16:28:15.823Z,1.00
2024-05-09T16:30:43.503Z,1.10
2024-05-09T16:33:12.003Z,1.00
2024-05-09T16:35:39.995Z,1.00
2024-05-09T16:38:07.794Z,1.00
2024-05-09T16:40:39.801Z,1.30
2024-05-09T16:43:10.209Z,1.00
2024-05-09T16:45:44.512Z,1.10
2024-05-09T16:48:13.423Z,1.20
2024-05-09T16:50:41.226Z,0.90
2024-05-09T16:53:08.880Z,1.20
2024-05-09T16:55:36.857Z,1.60
2024-05-09T16:58:06.500Z,1.70
2024-05-09T17:00:40.837Z,1.60
2024-05-09T17:03:15.583Z,1.40
2024-05-09T17:05:46.764Z,1.60
2024-05-09T17:08:16.444Z,1.40
2024-05-09T17:10:45.583Z,1.40
2024-05-09T17:13:13.372Z,1.60
2024-05-09T17:15:41.404Z,2.00
2024-05-09T17:18:09.812Z,2.20
2024-05-09T17:20:38.011Z,1.80
2024-05-09T17:23:15.206Z,1.80
2024-05-09T17:25:43.381Z,1.70
2024-05-09T17:28:11.600Z,1.60
2024-05-09T17:30:41.721Z,1.70
2024-05-09T17:33:11.383Z,1.90
2024-05-09T17:35:39.852Z,1.80
2024-05-09T17:38:07.513Z,2.10
2024-05-09T17:40:37.363Z,1.70
2024-05-09T17:43:08.383Z,2.20
2024-05-09T17:45:39.349Z,2.90
2024-05-09T17:48:09.830Z,2.20
2024-05-09T17:50:38.635Z,2.20
2024-05-09T17:53:07.121Z,1.90
2024-05-09T17:55:35.326Z,2.90
2024-05-09T17:58:06.813Z,3.10
2024-05-09T18:00:39.421Z,2.80
2024-05-09T18:03:11.984Z,2.70
2024-05-09T18:05:41.625Z,2.50
2024-05-09T18:08:09.888Z,3.00
2024-05-09T18:10:40.582Z,2.50
2024-05-09T18:13:09.110Z,3.50
2024-05-09T18:15:37.600Z,3.10
2024-05-09T18:18:05.994Z,2.70
2024-05-09T18:20:41.790Z,1.90
2024-05-09T18:23:14.654Z,2.50
2024-05-09T18:25:43.495Z,2.50
2024-05-09T18:28:11.185Z,2.90
2024-05-09T18:30:39.807Z,2.60
2024-05-09T18:33:09.918Z,3.50
2024-05-09T18:35:37.813Z,2.80
2024-05-09T18:38:05.735Z,2.90
2024-05-09T18:40:36.477Z,4.00
2024-05-09T18:43:07.604Z,4.70
2024-05-09T18:45:38.134Z,4.80
2024-05-09T18:48:08.374Z,4.50
2024-05-09T18:50:39.948Z,5.10
2024-05-09T18:53:10.354Z,5.60
2024-05-09T18:55:38.661Z,5.40
2024-05-09T18:58:06.693Z,5.10
2024-05-09T19:00:37.885Z,4.40
2024-05-09T19:03:09.429Z,4.00
2024-05-09T19:05:39.771Z,4.30
2024-05-09T19:08:08.545Z,5.30
2024-05-09T19:10:39.611Z,7.30
2024-05-09T19:13:13.017Z,6.20
2024-05-09T19:15:42.759Z,6.60
2024-05-09T19:18:12.515Z,7.80
2024-05-09T19:20:40.697Z,9.70
2024-05-09T19:23:08.447Z,11.10
2024-05-09T19:25:36.575Z,9.70
2024-05-09T19:28:05.492Z,9.10
2024-05-09T19:30:39.047Z,9.70
2024-05-09T19:33:13.565Z,8.30
2024-05-09T19:35:42.964Z,9.20
2024-05-09T19:38:11.809Z,10.00
2024-05-09T19:40:39.444Z,10.50
2024-05-09T19:43:07.306Z,9.60
2024-05-09T19:45:36.151Z,8.50
2024-05-09T19:48:05.353Z,8.20
2024-05-09T19:50:41.253Z,9.70
2024-05-09T19:53:14.731Z,9.00
2024-05-09T19:55:42.827Z,8.80
2024-05-09T19:58:11.918Z,9.30
2024-05-09T20:00:42.684Z,9.70
2024-05-09T20:03:12.731Z,10.10
2024-05-09T20:05:42.950Z,9.60
2024-05-09T20:08:10.899Z,8.50
2024-05-09T20:10:39.071Z,6.30
2024-05-09T20:13:08.217Z,6.50
2024-05-09T20:15:37.818Z,5.80
2024-05-09T20:18:06.723Z,5.50
2024-05-09T20:20:39.302Z,7.30
2024-05-09T20:23:13.069Z,6.40
2024-05-09T20:25:41.803Z,5.10
2024-05-09T20:28:10.670Z,5.30
2024-05-09T20:30:38.838Z,5.50
2024-05-09T20:33:07.826Z,3.90
2024-05-09T20:35:36.683Z,4.90
2024-05-09T20:38:05.240Z,4.30
2024-05-09T20:40:36.747Z,4.10
2024-05-09T20:43:08.053Z,4.00
2024-05-09T20:45:36.368Z,3.40
2024-05-09T20:48:04.964Z,3.40
2024-05-09T20:50:38.532Z,3.90
2024-05-09T20:53:10.447Z,4.10
2024-05-09T20:55:38.414Z,3.40
2024-05-09T20:58:06.047Z,2.90
2024-05-09T21:00:39.575Z,3.60
2024-05-09T21:03:11.491Z,3.70
2024-05-09T21:05:39.996Z,3.50
2024-05-09T21:08:08.188Z,3.60
2024-05-09T21:10:36.551Z,3.40
2024-05-09T21:13:05.855Z,3.70
2024-05-09T21:15:34.302Z,4.60
2024-05-09T21:18:02.052Z,4.00
2024-05-09T21:20:32.569Z,3.40
2024-05-09T21:23:01.605Z,3.80
2024-05-09T21:25:29.974Z,3.40
2024-05-09T21:27:57.811Z,3.70
2024-05-09T21:30:32.922Z,2.90
2024-05-09T21:33:09.267Z,3.00
2024-05-09T21:35:37.989Z,3.50
2024-05-09T21:38:05.958Z,3.70
2024-05-09T21:40:35.828Z,3.60
2024-05-09T21:43:06.251Z,3.10
2024-05-09T21:45:34.515Z,2.90
2024-05-09T21:48:06.246Z,3.20
2024-05-09T21:50:39.838Z,3.00
2024-05-09T21:53:13.433Z,2.90
2024-05-09T21:55:42.386Z,3.60
2024-05-09T21:58:12.180Z,2.90
2024-05-09T22:00:42.811Z,3.00
2024-05-09T22:03:11.692Z,2.80
2024-05-09T22:05:41.884Z,3.50
2024-05-09T22:08:10.530Z,3.20
2024-05-09T22:10:38.051Z,3.20
2024-05-09T22:13:06.603Z,3.30
2024-05-09T22:15:36.165Z,3.10
2024-05-09T22:18:05.367Z,2.90
2024-05-09T22:20:37.510Z,3.60
2024-05-09T22:23:08.285Z,2.90
2024-05-09T22:25:37.256Z,2.80
2024-05-09T22:28:05.584Z,3.20
2024-05-09T22:30:37.342Z,3.20
2024-05-09T22:33:08.489Z,3.40
2024-05-09T22:35:37.125Z,3.60
2024-05-09T22:38:04.720Z,3.20
2024-05-09T22:40:41.988Z,3.00
2024-05-09T22:43:23.810Z,2.60
2024-05-09T22:45:54.925Z,3.10
2024-05-09T22:48:24.600Z,3.60
2024-05-09T22:50:53.733Z,4.10
2024-05-09T22:53:22.656Z,3.30
2024-05-09T22:55:50.161Z,3.40
2024-05-09T22:58:18.382Z,3.00
2024-05-09T23:00:46.129Z,3.60
2024-05-09T23:03:16.605Z,3.10
2024-05-09T23:05:44.496Z,4.20
2024-05-09T23:08:12.160Z,3.80
2024-05-09T23:10:39.771Z,3.30
2024-05-09T23:13:08.168Z,3.40
2024-05-09T23:15:38.466Z,3.90
2024-05-09T23:18:06.844Z,4.30
2024-05-09T23:20:38.510Z,4.10
2024-05-09T23:23:08.487Z,4.40
2024-05-09T23:25:36.785Z,3.70
2024-05-09T23:28:05.366Z,3.20
2024-05-09T23:30:37.880Z,3.00
2024-05-09T23:33:10.024Z,2.90
2024-05-09T23:35:38.461Z,3.30
2024-05-09T23:38:05.907Z,3.90
2024-05-09T23:40:39.342Z,3.60
2024-05-09T23:43:10.168Z,3.40
2024-05-09T23:45:38.502Z,4.50
2024-05-09T23:48:06.898Z,4.10
2024-05-09T23:50:37.626Z,3.90
2024-05-09T23:53:08.444Z,4.50
2024-05-09T23:55:37.579Z,4.00
2024-05-09T23:58:06.378Z,3.90
